createdAt,value
2019-05-14T00:04:25.175Z,20.04
2019-05-14T00:14:37.245Z,23.82
2019-05-14T00:24:34.151Z,26.14
2019-05-14T00:34:37.729Z,25.28
2019-05-14T00:44:53.816Z,24.70
2019-05-14T00:54:47.750Z,24.04
2019-05-14T01:04:51.864Z,23.12
2019-05-14T01:15:07.058Z,21.38
2019-05-14T01:25:01.572Z,20.75
2019-05-14T01:35:07.277Z,20.42
2019-05-14T01:45:23.947Z,20.04
2019-05-14T01:55:17.614Z,19.84
2019-05-14T02:05:21.791Z,19.68
2019-05-14T02:15:37.161Z,19.76
2019-05-14T02:25:31.959Z,23.52
2019-05-14T02:35:35.850Z,25.78
2019-05-14T02:45:58.636Z,25.30
2019-05-14T02:55:45.381Z,24.37
2019-05-14T03:05:49.733Z,23.12
2019-05-14T03:15:53.520Z,21.87
2019-05-14T03:26:00.096Z,20.63
2019-05-14T03:36:09.442Z,20.23
2019-05-14T03:46:09.704Z,19.98
2019-05-14T03:56:12.999Z,19.69
2019-05-14T04:06:19.182Z,19.43
2019-05-14T04:16:22.725Z,19.39
2019-05-14T04:26:26.310Z,21.75
2019-05-14T04:36:30.366Z,25.79
2019-05-14T04:46:34.049Z,26.16
2019-05-14T04:56:39.796Z,25.48
2019-05-14T05:06:42.964Z,25.02
2019-05-14T05:16:49.122Z,24.41
2019-05-14T05:26:52.787Z,23.88
2019-05-14T05:36:58.993Z,23.49
2019-05-14T05:47:01.702Z,23.23
2019-05-14T05:57:05.577Z,23.02
2019-05-14T06:07:09.197Z,22.93
2019-05-14T06:17:12.776Z,22.88
2019-05-14T06:27:18.221Z,22.79
2019-05-14T06:37:21.670Z,22.88
2019-05-14T06:47:25.246Z,22.93
2019-05-14T06:57:28.862Z,22.98
2019-05-14T07:07:32.468Z,23.19
2019-05-14T07:17:38.411Z,23.34
2019-05-14T07:27:41.413Z,23.42
2019-05-14T07:37:45.000Z,23.39
2019-05-14T07:47:49.320Z,23.21
2019-05-14T07:57:53.029Z,23.13
2019-05-14T08:07:58.594Z,23.27
2019-05-14T08:18:02.316Z,24.83
2019-05-14T08:28:07.977Z,27.77
2019-05-14T08:38:12.171Z,27.60
2019-05-14T08:48:18.771Z,25.98
2019-05-14T08:58:21.442Z,25.11
2019-05-14T09:08:28.267Z,23.78
2019-05-14T09:18:31.300Z,23.30
2019-05-14T09:28:34.930Z,23.03
2019-05-14T09:38:42.225Z,22.71
2019-05-14T09:48:44.170Z,22.58
2019-05-14T09:58:49.673Z,22.37
2019-05-14T10:08:53.078Z,22.04
2019-05-14T10:18:56.513Z,21.87
2019-05-14T10:29:01.702Z,21.76
2019-05-14T10:39:09.379Z,21.49
2019-05-14T10:49:22.631Z,21.36
2019-05-14T10:59:18.396Z,21.49
2019-05-14T11:09:22.177Z,22.47
2019-05-14T11:19:28.037Z,22.48
2019-05-14T11:29:31.107Z,22.47
2019-05-14T11:39:34.696Z,22.60
2019-05-14T11:49:38.275Z,22.34
2019-05-14T11:59:41.867Z,22.22
2019-05-14T12:09:45.466Z,22.01
2019-05-14T12:19:49.088Z,21.79
2019-05-14T12:29:53.008Z,21.53
2019-05-14T12:39:58.635Z,21.53
2019-05-14T12:50:01.900Z,21.84
2019-05-14T13:00:09.005Z,23.54
2019-05-14T13:10:13.678Z,23.13
2019-05-14T13:20:18.548Z,22.49
2019-05-14T13:30:22.432Z,22.86
2019-05-14T13:40:28.273Z,22.65
2019-05-14T13:50:31.320Z,22.37
2019-05-14T14:00:34.921Z,22.02
2019-05-14T14:10:45.132Z,21.84
2019-05-14T14:20:44.030Z,21.62
2019-05-14T14:30:49.171Z,21.41
2019-05-14T14:40:52.998Z,21.27
2019-05-14T14:50:58.600Z,21.23
2019-05-14T15:01:01.907Z,21.58
2019-05-14T15:11:08.296Z,22.85
2019-05-14T15:21:11.094Z,23.50
2019-05-14T15:31:14.734Z,23.15
2019-05-14T15:41:20.085Z,22.47
2019-05-14T15:51:23.613Z,22.14
2019-05-14T16:01:28.554Z,22.00
2019-05-14T16:11:32.609Z,21.68
2019-05-14T16:21:38.632Z,21.49
2019-05-14T16:31:43.384Z,21.32
2019-05-14T16:41:48.977Z,21.08
2019-05-14T16:51:52.443Z,21.01
2019-05-14T17:01:58.461Z,20.91
2019-05-14T17:12:01.675Z,20.98
2019-05-14T17:22:23.340Z,21.96
2019-05-14T17:32:10.638Z,23.04
2019-05-14T17:42:14.302Z,24.04
2019-05-14T17:52:21.752Z,22.84
2019-05-14T18:02:23.283Z,22.18
2019-05-14T18:12:30.075Z,21.77
2019-05-14T18:22:32.204Z,21.46
2019-05-14T18:32:35.820Z,21.25
2019-05-14T18:42:39.458Z,21.04
2019-05-14T18:52:43.036Z,20.81
2019-05-14T19:02:48.249Z,20.57
2019-05-14T19:12:52.000Z,20.48
2019-05-14T19:22:55.574Z,20.50
2019-05-14T19:32:59.179Z,24.05
2019-05-14T19:43:02.754Z,26.31
2019-05-14T19:53:08.915Z,25.26
2019-05-14T20:03:11.686Z,24.45
2019-05-14T20:13:15.275Z,23.54
2019-05-14T20:33:22.231Z,21.74
2019-05-14T20:43:26.137Z,20.80
2019-05-14T20:53:29.759Z,20.42
2019-05-14T21:03:33.373Z,20.12
2019-05-14T21:13:37.016Z,19.96
2019-05-14T21:23:40.591Z,19.80
2019-05-14T21:33:44.462Z,19.67
2019-05-14T21:43:49.283Z,19.61
2019-05-14T21:53:53.072Z,20.61
2019-05-14T22:03:59.149Z,25.87
2019-05-14T22:14:02.521Z,26.16
2019-05-14T22:24:06.252Z,25.23
2019-05-14T22:34:09.983Z,24.47
2019-05-14T22:44:13.716Z,23.30
2019-05-14T22:54:17.721Z,21.99
2019-05-14T23:04:22.857Z,20.74
2019-05-14T23:14:28.207Z,20.36
2019-05-14T23:24:32.015Z,20.08
2019-05-14T23:34:37.845Z,19.80
2019-05-14T23:44:40.899Z,19.66
2019-05-14T23:54:44.478Z,19.51
